createdAt,value
2023-04-23T00:00:23.430Z,6.25
2023-04-23T00:02:53.361Z,7.47
2023-04-23T00:05:20.510Z,7.25
2023-04-23T00:07:47.267Z,7.65
2023-04-23T00:10:13.909Z,7.00
2023-04-23T00:12:41.021Z,8.40
2023-04-23T00:15:08.100Z,7.00
2023-04-23T00:17:34.591Z,7.00
2023-04-23T00:20:01.022Z,7.20
2023-04-23T00:22:27.648Z,7.25
2023-04-23T00:24:54.093Z,6.78
2023-04-23T00:27:21.357Z,6.72
2023-04-23T00:29:48.079Z,6.50
2023-04-23T00:32:15.089Z,6.97
2023-04-23T00:34:41.642Z,6.93
2023-04-23T00:37:08.439Z,7.45
2023-04-23T00:39:35.902Z,7.50
2023-04-23T00:42:07.077Z,6.88
2023-04-23T00:44:33.869Z,7.00
2023-04-23T00:47:00.670Z,7.50
2023-04-23T00:49:27.770Z,8.10
2023-04-23T00:51:54.139Z,6.90
2023-04-23T00:54:20.543Z,7.15
2023-04-23T00:56:47.514Z,6.78
2023-04-23T00:59:14.528Z,6.88
2023-04-23T01:01:41.351Z,7.70
2023-04-23T01:04:09.537Z,7.65
2023-04-23T01:06:36.324Z,7.47
2023-04-23T01:09:03.642Z,6.97
2023-04-23T01:11:30.428Z,7.68
2023-04-23T01:13:57.176Z,7.18
2023-04-23T01:16:23.592Z,7.20
2023-04-23T01:18:50.037Z,6.88
2023-04-23T01:21:17.240Z,7.70
2023-04-23T01:23:43.700Z,7.28
2023-04-23T01:26:10.871Z,7.00
2023-04-23T01:28:37.402Z,6.70
2023-04-23T01:31:04.199Z,6.80
2023-04-23T01:33:31.705Z,7.30
2023-04-23T01:35:58.791Z,7.20
2023-04-23T01:38:26.071Z,8.30
2023-04-23T01:40:52.443Z,7.72
2023-04-23T01:43:19.051Z,8.23
2023-04-23T01:45:45.720Z,7.32
2023-04-23T01:48:12.310Z,7.00
2023-04-23T01:50:39.164Z,7.43
2023-04-23T01:53:05.665Z,7.90
2023-04-23T01:55:34.817Z,7.53
2023-04-23T01:58:01.211Z,7.90
2023-04-23T02:00:27.843Z,7.45
2023-04-23T02:02:54.391Z,7.55
2023-04-23T02:05:21.428Z,7.50
2023-04-23T02:07:49.929Z,7.50
2023-04-23T02:10:16.757Z,7.28
2023-04-23T02:12:43.719Z,7.05
2023-04-23T02:15:11.136Z,7.50
2023-04-23T02:17:39.905Z,7.72
2023-04-23T02:20:09.725Z,7.28
2023-04-23T02:22:38.032Z,8.15
2023-04-23T02:25:06.914Z,8.38
2023-04-23T02:27:33.438Z,8.25
2023-04-23T02:30:00.150Z,8.10
2023-04-23T02:32:28.044Z,8.82
2023-04-23T02:34:55.168Z,8.65
2023-04-23T02:37:21.544Z,9.10
2023-04-23T02:39:47.943Z,8.77
2023-04-23T02:42:14.620Z,8.20
2023-04-23T02:44:41.428Z,9.55
2023-04-23T02:47:08.094Z,8.77
2023-04-23T02:49:34.500Z,10.70
2023-04-23T02:52:00.932Z,10.30
2023-04-23T02:54:27.418Z,9.73
2023-04-23T02:56:53.863Z,11.02
2023-04-23T02:59:20.456Z,10.10
2023-04-23T03:01:46.921Z,12.05
2023-04-23T03:04:13.484Z,11.00
2023-04-23T03:06:40.010Z,10.98
2023-04-23T03:09:06.667Z,11.30
2023-04-23T03:11:33.902Z,10.30
2023-04-23T03:14:00.421Z,9.43
2023-04-23T03:16:28.509Z,11.63
2023-04-23T03:18:55.543Z,11.90
2023-04-23T03:21:21.992Z,11.15
2023-04-23T03:23:48.433Z,11.15
2023-04-23T03:26:14.888Z,10.50
2023-04-23T03:28:41.496Z,11.93
2023-04-23T03:31:08.143Z,12.57
2023-04-23T03:33:34.820Z,10.77
2023-04-23T03:36:01.266Z,11.93
2023-04-23T03:38:27.832Z,12.20
2023-04-23T03:40:54.752Z,12.02
2023-04-23T03:43:21.177Z,12.18
2023-04-23T03:45:47.596Z,12.13
2023-04-23T03:48:14.024Z,11.82
2023-04-23T03:50:40.809Z,12.23
2023-04-23T03:53:08.199Z,11.52
2023-04-23T03:55:34.638Z,11.27
2023-04-23T03:58:01.815Z,11.95
2023-04-23T04:00:28.319Z,11.48
2023-04-23T04:02:55.098Z,11.18
2023-04-23T04:05:23.040Z,11.70
2023-04-23T04:07:49.521Z,12.07
2023-04-23T04:10:15.945Z,14.68
2023-04-23T04:12:42.391Z,15.45
2023-04-23T04:15:09.247Z,16.65
2023-04-23T04:17:35.708Z,18.85
2023-04-23T04:20:02.203Z,21.38
2023-04-23T04:22:29.460Z,19.23
2023-04-23T04:24:57.435Z,21.23
2023-04-23T04:27:23.951Z,19.83
2023-04-23T04:29:51.838Z,20.90
2023-04-23T04:32:19.121Z,22.23
2023-04-23T04:34:45.586Z,22.25
2023-04-23T04:37:12.920Z,20.52
2023-04-23T04:39:39.979Z,21.95
2023-04-23T04:42:07.368Z,24.45
2023-04-23T04:44:34.522Z,26.75
2023-04-23T04:47:01.678Z,21.00
2023-04-23T04:49:28.392Z,21.15
2023-04-23T04:51:54.870Z,26.65
2023-04-23T04:54:22.001Z,22.15
2023-04-23T04:56:48.514Z,24.55
2023-04-23T04:59:21.048Z,24.65
2023-04-23T05:01:48.220Z,20.92
2023-04-23T05:04:14.909Z,23.25
2023-04-23T05:06:41.544Z,22.58
2023-04-23T05:09:08.458Z,23.45
2023-04-23T05:11:36.116Z,20.98
2023-04-23T05:14:04.338Z,22.73
2023-04-23T05:16:30.976Z,21.52
2023-04-23T05:18:57.781Z,26.98
2023-04-23T05:21:24.283Z,19.80
2023-04-23T05:23:50.861Z,23.08
2023-04-23T05:26:18.295Z,18.95
2023-04-23T05:28:44.823Z,18.35
2023-04-23T05:31:11.490Z,17.92
2023-04-23T05:33:49.087Z,18.33
2023-04-23T05:36:19.559Z,18.02
2023-04-23T05:38:46.939Z,18.50
2023-04-23T05:41:13.492Z,18.17
2023-04-23T05:43:40.000Z,16.88
2023-04-23T05:46:07.900Z,17.23
2023-04-23T05:48:35.511Z,15.30
2023-04-23T05:51:02.194Z,14.88
2023-04-23T05:53:30.807Z,13.88
2023-04-23T05:55:57.398Z,13.32
2023-04-23T05:58:23.817Z,12.00
2023-04-23T06:00:50.389Z,11.25
2023-04-23T06:03:17.233Z,11.20
2023-04-23T06:05:44.056Z,10.25
2023-04-23T06:08:11.835Z,9.90
2023-04-23T06:10:38.496Z,10.85
2023-04-23T06:13:04.959Z,8.77
2023-04-23T06:15:31.669Z,10.05
2023-04-23T06:17:58.235Z,9.00
2023-04-23T06:20:25.538Z,9.77
2023-04-23T06:22:52.040Z,8.52
2023-04-23T06:25:18.651Z,7.90
2023-04-23T06:27:45.100Z,7.90
2023-04-23T06:30:11.999Z,8.52
2023-04-23T06:32:38.559Z,8.65
2023-04-23T06:35:06.970Z,7.30
2023-04-23T06:37:33.987Z,8.35
2023-04-23T06:40:00.611Z,8.55
2023-04-23T06:42:27.417Z,8.60
2023-04-23T06:44:54.167Z,7.07
2023-04-23T06:47:20.645Z,6.95
2023-04-23T06:49:47.169Z,6.50
2023-04-23T06:52:13.711Z,6.72
2023-04-23T06:54:40.450Z,6.55
2023-04-23T06:57:07.117Z,13.25
2023-04-23T06:59:33.568Z,7.68
2023-04-23T07:02:00.401Z,6.88
2023-04-23T07:04:26.928Z,7.13
2023-04-23T07:06:53.379Z,7.03
2023-04-23T07:09:19.931Z,6.85
2023-04-23T07:11:46.504Z,6.38
2023-04-23T07:14:12.897Z,6.32
2023-04-23T07:16:39.390Z,6.22
2023-04-23T07:19:05.935Z,6.10
2023-04-23T07:21:33.102Z,5.75
2023-04-23T07:24:00.749Z,5.70
2023-04-23T07:26:29.693Z,6.70
2023-04-23T07:28:56.205Z,6.28
2023-04-23T07:31:23.845Z,5.70
2023-04-23T07:33:50.334Z,6.50
2023-04-23T07:36:16.885Z,6.45
2023-04-23T07:38:43.311Z,7.40
2023-04-23T07:41:09.830Z,5.68
2023-04-23T07:43:36.245Z,6.53
2023-04-23T07:46:02.819Z,6.25
2023-04-23T07:48:29.348Z,5.88
2023-04-23T07:50:56.588Z,6.22
2023-04-23T07:53:23.081Z,5.78
2023-04-23T07:55:49.558Z,5.97
2023-04-23T07:58:15.926Z,6.68
2023-04-23T08:00:42.362Z,5.93
2023-04-23T08:03:08.898Z,6.03
2023-04-23T08:05:37.277Z,6.03
2023-04-23T08:08:03.798Z,6.15
2023-04-23T08:10:30.242Z,6.38
2023-04-23T08:12:56.624Z,6.75
2023-04-23T08:15:23.170Z,6.50
2023-04-23T08:17:49.594Z,6.15
2023-04-23T08:20:16.041Z,6.10
2023-04-23T08:22:42.464Z,6.32
2023-04-23T08:25:09.510Z,5.97
2023-04-23T08:27:36.053Z,6.18
2023-04-23T08:30:02.525Z,5.45
2023-04-23T08:32:29.322Z,6.35
2023-04-23T08:34:55.764Z,6.38
2023-04-23T08:37:30.152Z,6.43
2023-04-23T08:39:57.138Z,6.35
2023-04-23T08:42:34.829Z,6.20
2023-04-23T08:45:03.960Z,6.15
2023-04-23T08:47:32.287Z,6.78
2023-04-23T08:49:59.406Z,6.13
2023-04-23T08:52:28.692Z,6.72
2023-04-23T08:55:00.202Z,6.28
2023-04-23T08:57:27.426Z,6.47
2023-04-23T08:59:55.300Z,6.45
2023-04-23T09:02:22.861Z,6.78
2023-04-23T09:04:51.426Z,6.72
2023-04-23T09:07:19.176Z,6.72
2023-04-23T09:09:45.631Z,6.13
2023-04-23T09:12:12.096Z,7.85
2023-04-23T09:14:38.512Z,6.20
2023-04-23T09:17:05.654Z,6.18
2023-04-23T09:19:32.482Z,5.90
2023-04-23T09:22:02.074Z,6.25
2023-04-23T09:24:28.646Z,6.43
2023-04-23T09:26:55.117Z,5.88
2023-04-23T09:29:23.464Z,6.15
2023-04-23T09:31:56.343Z,9.45
2023-04-23T09:34:24.654Z,6.43
2023-04-23T09:36:52.806Z,6.05
2023-04-23T09:39:22.299Z,5.43
2023-04-23T09:41:51.029Z,5.53
2023-04-23T09:44:19.443Z,5.60
2023-04-23T09:46:46.161Z,5.85
2023-04-23T09:49:14.826Z,5.55
2023-04-23T09:51:44.478Z,8.52
2023-04-23T09:54:15.499Z,5.90
2023-04-23T09:56:43.552Z,6.45
2023-04-23T09:59:24.647Z,6.20
2023-04-23T10:01:56.281Z,5.88
2023-04-23T10:04:26.276Z,6.25
2023-04-23T10:07:13.856Z,6.15
2023-04-23T10:09:44.289Z,6.40
2023-04-23T10:12:27.755Z,6.10
2023-04-23T10:14:59.702Z,6.10
2023-04-23T10:17:26.577Z,6.45
2023-04-23T10:19:54.356Z,6.50
2023-04-23T10:22:21.857Z,6.32
2023-04-23T10:24:53.096Z,6.75
2023-04-23T10:29:56.330Z,7.00
2023-04-23T10:32:23.933Z,6.72
2023-04-23T10:34:51.140Z,7.50
2023-04-23T10:37:21.150Z,6.63
2023-04-23T10:39:51.018Z,6.95
2023-04-23T10:42:18.040Z,7.18
2023-04-23T10:44:57.863Z,6.95
2023-04-23T10:47:27.472Z,6.70
2023-04-23T10:49:53.904Z,6.78
2023-04-23T10:52:23.765Z,6.43
2023-04-23T10:55:00.150Z,6.00
2023-04-23T10:57:26.917Z,5.70
2023-04-23T10:59:56.396Z,5.97
2023-04-23T11:02:24.735Z,5.25
2023-04-23T11:04:59.361Z,5.88
2023-04-23T11:07:31.107Z,5.75
2023-04-23T11:09:59.697Z,5.65
2023-04-23T11:12:26.979Z,6.60
2023-04-23T11:14:55.052Z,5.68
2023-04-23T11:17:33.765Z,5.60
2023-04-23T11:20:13.296Z,5.88
2023-04-23T11:22:42.495Z,5.75
2023-04-23T11:25:14.139Z,5.72
2023-04-23T11:27:44.173Z,6.07
2023-04-23T11:30:15.645Z,5.97
2023-04-23T11:32:50.395Z,6.35
2023-04-23T11:35:18.484Z,6.97
2023-04-23T11:37:46.573Z,5.88
2023-04-23T11:40:18.752Z,6.10
2023-04-23T11:42:47.411Z,6.55
2023-04-23T11:45:20.448Z,6.45
2023-04-23T11:47:48.756Z,7.28
2023-04-23T11:50:25.876Z,6.43
2023-04-23T11:52:53.074Z,7.03
2023-04-23T11:55:20.264Z,6.63
2023-04-23T11:57:49.234Z,6.80
2023-04-23T12:00:16.317Z,6.32
2023-04-23T12:02:57.968Z,6.70
2023-04-23T12:05:36.813Z,6.53
2023-04-23T12:08:17.284Z,7.35
2023-04-23T12:10:50.514Z,7.20
2023-04-23T12:13:19.131Z,7.85
2023-04-23T12:15:50.921Z,7.70
2023-04-23T12:18:18.167Z,7.53
2023-04-23T12:20:45.081Z,7.22
2023-04-23T12:23:11.711Z,7.47
2023-04-23T12:25:41.494Z,7.35
2023-04-23T12:28:08.620Z,8.13
2023-04-23T12:30:43.148Z,7.93
2023-04-23T12:33:11.330Z,8.00
2023-04-23T12:35:42.758Z,8.48
2023-04-23T12:38:25.135Z,7.80
2023-04-23T12:40:53.069Z,7.68
2023-04-23T12:43:19.506Z,7.43
2023-04-23T12:45:45.965Z,7.22
2023-04-23T12:48:13.605Z,6.90
2023-04-23T12:50:40.374Z,7.13
2023-04-23T12:53:06.879Z,7.63
2023-04-23T12:55:33.427Z,7.53
2023-04-23T12:58:00.345Z,7.03
2023-04-23T13:00:27.175Z,7.82
2023-04-23T13:02:55.629Z,6.90
2023-04-23T13:05:23.962Z,6.47
2023-04-23T13:07:50.649Z,6.20
2023-04-23T13:10:17.136Z,6.25
2023-04-23T13:12:43.644Z,6.35
2023-04-23T13:15:12.845Z,6.78
2023-04-23T13:17:39.350Z,6.50
2023-04-23T13:20:06.863Z,6.88
2023-04-23T13:22:33.421Z,5.78
2023-04-23T13:25:00.033Z,7.80
2023-04-23T13:27:28.415Z,6.55
2023-04-23T13:29:55.762Z,6.35
2023-04-23T13:32:23.685Z,5.82
2023-04-23T13:34:50.411Z,6.13
2023-04-23T13:37:16.984Z,5.88
2023-04-23T13:39:43.735Z,5.68
2023-04-23T13:42:10.555Z,6.20
2023-04-23T13:44:37.058Z,6.63
2023-04-23T13:47:04.018Z,6.25
2023-04-23T13:49:30.466Z,5.88
2023-04-23T13:52:01.074Z,6.78
2023-04-23T13:54:27.926Z,6.30
2023-04-23T13:56:55.651Z,7.95
2023-04-23T13:59:22.195Z,7.68
2023-04-23T14:01:51.855Z,7.10
2023-04-23T14:04:19.157Z,6.60
2023-04-23T14:06:45.734Z,6.70
2023-04-23T14:09:12.177Z,7.65
2023-04-23T14:11:40.486Z,7.82
2023-04-23T14:14:07.560Z,7.40
2023-04-23T14:16:34.093Z,7.30
2023-04-23T14:19:00.618Z,7.45
2023-04-23T14:21:27.446Z,6.75
2023-04-23T14:24:09.088Z,7.10
2023-04-23T14:26:47.835Z,6.90
2023-04-23T14:29:18.447Z,6.93
2023-04-23T14:31:44.890Z,7.07
2023-04-23T14:34:11.702Z,7.40
2023-04-23T14:36:38.141Z,7.07
2023-04-23T14:39:07.883Z,7.20
2023-04-23T14:41:34.631Z,7.10
2023-04-23T14:44:01.437Z,6.50
2023-04-23T14:46:28.628Z,7.80
2023-04-23T14:48:55.685Z,7.63
2023-04-23T14:51:22.227Z,7.47
2023-04-23T14:53:48.681Z,7.57
2023-04-23T14:56:15.075Z,8.50
2023-04-23T14:58:41.939Z,7.43
2023-04-23T15:01:08.780Z,7.55
2023-04-23T15:03:36.588Z,7.60
2023-04-23T15:06:07.048Z,8.48
2023-04-23T15:08:33.665Z,8.18
2023-04-23T15:11:00.226Z,7.60
2023-04-23T15:13:31.279Z,7.80
2023-04-23T15:16:02.953Z,7.85
2023-04-23T15:18:29.421Z,7.35
2023-04-23T15:20:55.939Z,7.15
2023-04-23T15:23:24.112Z,7.72
2023-04-23T15:25:51.094Z,6.88
2023-04-23T15:28:17.905Z,7.03
2023-04-23T15:30:44.930Z,7.50
2023-04-23T15:33:11.486Z,7.00
2023-04-23T15:35:37.831Z,7.18
2023-04-23T15:38:04.213Z,7.65
2023-04-23T15:40:30.637Z,7.82
2023-04-23T15:42:57.029Z,7.80
2023-04-23T15:45:23.390Z,8.00
2023-04-23T15:47:51.426Z,8.63
2023-04-23T15:50:22.364Z,8.50
2023-04-23T15:52:50.350Z,8.45
2023-04-23T15:55:17.633Z,8.00
2023-04-23T15:57:43.985Z,7.93
2023-04-23T16:00:10.944Z,7.63
2023-04-23T16:02:37.867Z,7.28
2023-04-23T16:05:05.182Z,8.15
2023-04-23T16:07:31.602Z,7.90
2023-04-23T16:09:57.970Z,7.68
2023-04-23T16:12:24.436Z,7.72
2023-04-23T16:14:50.815Z,7.40
2023-04-23T16:17:17.449Z,7.53
2023-04-23T16:19:44.036Z,7.68
2023-04-23T16:22:10.631Z,6.97
2023-04-23T16:24:37.006Z,7.65
2023-04-23T16:27:06.240Z,7.50
2023-04-23T16:29:32.780Z,7.63
2023-04-23T16:31:59.162Z,7.90
2023-04-23T16:34:25.731Z,8.07
2023-04-23T16:36:52.156Z,8.10
2023-04-23T16:39:18.542Z,7.55
2023-04-23T16:41:45.034Z,7.80
2023-04-23T16:44:11.495Z,7.40
2023-04-23T16:46:38.012Z,7.60
2023-04-23T16:49:04.607Z,7.25
2023-04-23T16:51:32.235Z,7.55
2023-04-23T16:53:58.807Z,6.97
2023-04-23T16:56:25.523Z,7.25
2023-04-23T16:58:52.092Z,7.50
2023-04-23T17:01:18.710Z,7.60
2023-04-23T17:03:45.912Z,7.65
2023-04-23T17:06:20.238Z,7.57
2023-04-23T17:08:46.638Z,7.60
2023-04-23T17:11:13.141Z,7.97
2023-04-23T17:13:39.529Z,8.25
2023-04-23T17:16:06.024Z,7.85
2023-04-23T17:18:32.483Z,7.38
2023-04-23T17:20:58.950Z,8.57
2023-04-23T17:23:25.380Z,8.40
2023-04-23T17:25:51.956Z,8.10
2023-04-23T17:28:20.124Z,9.30
2023-04-23T17:30:50.217Z,9.70
2023-04-23T17:33:21.067Z,8.20
2023-04-23T17:35:51.932Z,7.95
2023-04-23T17:38:21.517Z,8.95
2023-04-23T17:40:49.552Z,7.93
2023-04-23T17:43:16.704Z,7.95
2023-04-23T17:45:43.498Z,8.55
2023-04-23T17:48:09.910Z,9.55
2023-04-23T17:50:36.497Z,10.02
2023-04-23T17:53:03.703Z,9.45
2023-04-23T17:55:32.878Z,9.63
2023-04-23T17:58:05.555Z,9.55
2023-04-23T18:00:42.136Z,9.95
2023-04-23T18:03:09.794Z,10.02
2023-04-23T18:05:36.438Z,10.02
2023-04-23T18:08:03.364Z,9.82
2023-04-23T18:10:29.953Z,9.77
2023-04-23T18:12:56.574Z,10.13
2023-04-23T18:15:23.077Z,10.35
2023-04-23T18:17:50.345Z,9.27
2023-04-23T18:20:16.790Z,21.38
2023-04-23T18:22:44.353Z,18.92
2023-04-23T18:25:11.543Z,9.73
2023-04-23T18:27:38.541Z,10.10
2023-04-23T18:30:05.898Z,10.15
2023-04-23T18:35:04.101Z,13.98
2023-04-23T18:37:37.642Z,15.90
2023-04-23T18:40:05.771Z,10.68
2023-04-23T18:42:32.218Z,10.93
2023-04-23T18:44:58.566Z,10.85
2023-04-23T18:47:29.446Z,11.10
2023-04-23T18:50:00.217Z,10.30
2023-04-23T18:52:26.657Z,10.18
2023-04-23T18:54:53.135Z,9.30
2023-04-23T18:57:19.535Z,10.23
2023-04-23T18:59:45.926Z,10.50
2023-04-23T19:02:18.778Z,11.07
2023-04-23T19:04:51.351Z,10.20
2023-04-23T19:07:17.836Z,10.35
2023-04-23T19:09:44.472Z,12.77
2023-04-23T19:12:11.071Z,22.42
2023-04-23T19:14:37.633Z,12.32
2023-04-23T19:17:04.033Z,16.17
2023-04-23T19:19:32.016Z,10.82
2023-04-23T19:21:58.412Z,10.57
2023-04-23T19:24:24.766Z,10.38
2023-04-23T19:26:51.396Z,10.10
2023-04-23T19:29:17.848Z,10.27
2023-04-23T19:31:44.262Z,10.10
2023-04-23T19:34:10.737Z,9.50
2023-04-23T19:36:37.127Z,9.85
2023-04-23T19:39:03.801Z,10.00
2023-04-23T19:41:30.378Z,9.85
2023-04-23T19:43:56.767Z,9.77
2023-04-23T19:46:23.181Z,10.25
2023-04-23T19:48:49.591Z,11.57
2023-04-23T19:51:17.132Z,12.07
2023-04-23T19:53:43.606Z,10.48
2023-04-23T19:56:13.128Z,11.35
2023-04-23T19:58:40.438Z,10.70
2023-04-23T20:01:07.884Z,10.30
2023-04-23T20:03:34.775Z,11.20
2023-04-23T20:06:01.295Z,10.70
2023-04-23T20:08:29.656Z,11.00
2023-04-23T20:10:56.572Z,11.27
2023-04-23T20:13:23.897Z,10.40
2023-04-23T20:15:50.456Z,10.40
2023-04-23T20:18:18.246Z,10.70
2023-04-23T20:20:44.631Z,10.63
2023-04-23T20:23:11.021Z,10.38
2023-04-23T20:25:37.441Z,11.15
2023-04-23T20:28:03.874Z,11.00
2023-04-23T20:30:30.316Z,12.43
2023-04-23T20:32:58.191Z,12.70
2023-04-23T20:35:24.703Z,13.60
2023-04-23T20:37:52.892Z,12.70
2023-04-23T20:40:19.551Z,14.10
2023-04-23T20:42:47.157Z,13.35
2023-04-23T20:45:14.364Z,13.85
2023-04-23T20:47:41.421Z,13.93
2023-04-23T20:50:08.442Z,14.20
2023-04-23T20:52:35.250Z,14.60
2023-04-23T20:55:01.922Z,13.30
2023-04-23T20:57:28.314Z,13.50
2023-04-23T20:59:54.729Z,13.10
2023-04-23T21:02:21.233Z,12.23
2023-04-23T21:04:47.668Z,13.68
2023-04-23T21:07:14.059Z,14.90
2023-04-23T21:09:40.772Z,13.00
2023-04-23T21:12:07.415Z,13.50
2023-04-23T21:14:33.987Z,14.82
2023-04-23T21:17:00.472Z,13.55
2023-04-23T21:19:26.855Z,14.60
2023-04-23T21:21:53.243Z,13.13
2023-04-23T21:24:19.604Z,13.82
2023-04-23T21:26:46.618Z,16.40
2023-04-23T21:29:13.026Z,15.38
2023-04-23T21:31:46.824Z,15.32
2023-04-23T21:34:16.537Z,14.38
2023-04-23T21:36:44.714Z,14.50
2023-04-23T21:39:13.165Z,15.43
2023-04-23T21:41:40.151Z,15.65
2023-04-23T21:44:06.668Z,14.98
2023-04-23T21:46:33.327Z,15.48
2023-04-23T21:48:59.824Z,15.90
2023-04-23T21:51:26.285Z,15.23
2023-04-23T21:53:52.673Z,15.32
2023-04-23T21:56:19.156Z,13.85
2023-04-23T21:58:45.838Z,14.73
2023-04-23T22:01:12.385Z,14.60
2023-04-23T22:03:42.410Z,16.30
2023-04-23T22:06:09.764Z,15.52
2023-04-23T22:08:40.284Z,14.38
2023-04-23T22:11:08.226Z,14.75
2023-04-23T22:13:35.595Z,16.08
2023-04-23T22:16:04.989Z,15.20
2023-04-23T22:18:33.132Z,15.13
2023-04-23T22:20:59.558Z,15.27
2023-04-23T22:23:25.965Z,15.80
2023-04-23T22:25:52.402Z,15.18
2023-04-23T22:28:18.928Z,15.18
2023-04-23T22:30:45.348Z,14.57
2023-04-23T22:33:11.864Z,14.75
2023-04-23T22:35:38.330Z,15.40
2023-04-23T22:38:05.215Z,15.20
2023-04-23T22:40:31.643Z,14.23
2023-04-23T22:42:58.055Z,13.45
2023-04-23T22:45:24.440Z,11.82
2023-04-23T22:47:51.024Z,10.02
2023-04-23T22:50:17.447Z,8.23
2023-04-23T22:52:44.461Z,7.80
2023-04-23T22:55:11.697Z,7.25
2023-04-23T22:57:38.326Z,6.50
2023-04-23T23:00:07.676Z,7.00
2023-04-23T23:02:34.222Z,6.28
2023-04-23T23:05:00.963Z,6.50
2023-04-23T23:07:27.422Z,6.40
2023-04-23T23:09:53.798Z,6.72
2023-04-23T23:12:20.308Z,6.88
2023-04-23T23:14:46.732Z,6.57
2023-04-23T23:17:13.135Z,7.30
2023-04-23T23:19:39.553Z,6.35
2023-04-23T23:22:06.164Z,6.50
2023-04-23T23:24:32.629Z,6.35
2023-04-23T23:26:59.004Z,6.32
2023-04-23T23:29:25.351Z,6.18
2023-04-23T23:31:51.815Z,6.00
2023-04-23T23:34:18.250Z,6.18
2023-04-23T23:36:45.707Z,6.10
2023-04-23T23:39:13.224Z,5.30
2023-04-23T23:41:39.621Z,5.28
2023-04-23T23:44:06.024Z,5.43
2023-04-23T23:46:32.453Z,5.15
2023-04-23T23:48:58.922Z,5.35
2023-04-23T23:51:25.631Z,5.63
2023-04-23T23:53:52.001Z,5.70
2023-04-23T23:56:18.494Z,5.32
2023-04-23T23:58:44.981Z,4.80
